createdAt,value
2023-01-05T00:00:10.598Z,8.40
2023-01-05T00:02:37.549Z,8.40
2023-01-05T00:05:04.394Z,8.50
2023-01-05T00:07:31.051Z,10.40
2023-01-05T00:09:57.724Z,8.50
2023-01-05T00:12:43.002Z,8.50
2023-01-05T00:15:28.846Z,8.50
2023-01-05T00:18:14.279Z,8.40
2023-01-05T00:20:59.661Z,8.40
2023-01-05T00:23:26.281Z,8.40
2023-01-05T00:25:52.882Z,8.50
2023-01-05T00:28:19.518Z,9.10
2023-01-05T00:30:46.934Z,8.50
2023-01-05T00:33:15.370Z,8.40
2023-01-05T00:35:42.089Z,10.10
2023-01-05T00:38:09.404Z,8.50
2023-01-05T00:40:36.089Z,8.50
2023-01-05T00:43:02.658Z,8.50
2023-01-05T00:45:29.368Z,9.30
2023-01-05T00:47:56.207Z,8.40
2023-01-05T00:50:22.886Z,8.40
2023-01-05T00:52:49.849Z,8.40
2023-01-05T00:55:16.532Z,9.40
2023-01-05T00:57:43.255Z,8.40
2023-01-05T01:00:14.832Z,8.40
2023-01-05T01:02:41.545Z,8.40
2023-01-05T01:05:08.441Z,8.40
2023-01-05T01:07:35.108Z,8.40
2023-01-05T01:10:01.757Z,8.40
2023-01-05T01:12:28.387Z,8.50
2023-01-05T01:14:55.081Z,9.40
2023-01-05T01:17:21.719Z,8.50
2023-01-05T01:19:48.439Z,8.40
2023-01-05T01:22:15.079Z,8.50
2023-01-05T01:24:41.826Z,8.50
2023-01-05T01:27:08.501Z,8.50
2023-01-05T01:29:35.203Z,8.80
2023-01-05T01:32:01.904Z,8.50
2023-01-05T01:34:28.570Z,8.50
2023-01-05T01:36:55.775Z,9.40
2023-01-05T01:39:22.665Z,8.40
2023-01-05T01:41:49.307Z,8.50
2023-01-05T01:44:34.801Z,8.50
2023-01-05T01:47:01.438Z,8.40
2023-01-05T01:49:28.101Z,8.40
2023-01-05T01:51:54.833Z,8.40
2023-01-05T01:54:21.423Z,8.50
2023-01-05T01:56:50.650Z,8.50
2023-01-05T01:59:17.494Z,8.50
2023-01-05T02:01:44.470Z,8.50
2023-01-05T02:04:11.813Z,8.50
2023-01-05T02:06:38.500Z,8.50
2023-01-05T02:09:05.760Z,8.50
2023-01-05T02:11:45.685Z,10.10
2023-01-05T02:14:37.156Z,8.40
2023-01-05T02:17:13.045Z,8.40
2023-01-05T02:19:58.365Z,8.40
2023-01-05T02:22:43.771Z,8.40
2023-01-05T02:25:29.118Z,8.40
2023-01-05T02:27:58.901Z,8.40
2023-01-05T02:30:28.618Z,8.40
2023-01-05T02:33:14.089Z,8.50
2023-01-05T02:35:46.013Z,8.50
2023-01-05T02:38:23.494Z,8.50
2023-01-05T02:40:53.296Z,8.50
2023-01-05T02:43:20.714Z,8.50
2023-01-05T02:45:47.939Z,8.50
2023-01-05T02:48:14.910Z,8.60
2023-01-05T02:50:45.123Z,10.50
2023-01-05T02:53:14.846Z,8.60
2023-01-05T02:55:44.774Z,8.60
2023-01-05T02:58:15.387Z,8.70
2023-01-05T03:00:44.321Z,8.70
2023-01-05T03:03:13.971Z,8.70
2023-01-05T03:05:46.309Z,8.70
2023-01-05T03:08:26.313Z,8.70
2023-01-05T03:11:19.308Z,8.80
2023-01-05T03:13:48.744Z,8.80
2023-01-05T03:16:19.206Z,8.80
2023-01-05T03:19:05.121Z,8.80
2023-01-05T03:21:51.145Z,8.80
2023-01-05T03:24:36.427Z,8.90
2023-01-05T03:27:23.162Z,8.90
2023-01-05T03:30:08.282Z,8.90
2023-01-05T03:32:55.221Z,8.90
2023-01-05T03:35:36.248Z,9.00
2023-01-05T03:38:21.303Z,8.90
2023-01-05T03:40:50.788Z,9.00
2023-01-05T03:43:17.520Z,9.00
2023-01-05T03:45:52.637Z,9.00
2023-01-05T03:48:21.035Z,9.00
2023-01-05T03:50:48.004Z,9.10
2023-01-05T03:53:14.676Z,9.10
2023-01-05T03:55:41.764Z,10.20
2023-01-05T03:58:08.417Z,9.40
2023-01-05T04:00:35.135Z,9.20
2023-01-05T04:03:01.841Z,9.20
2023-01-05T04:05:28.851Z,9.20
2023-01-05T04:07:55.567Z,10.00
2023-01-05T04:10:22.186Z,9.10
2023-01-05T04:12:49.363Z,10.20
2023-01-05T04:15:16.237Z,10.40
2023-01-05T04:17:42.921Z,9.70
2023-01-05T04:20:09.851Z,9.10
2023-01-05T04:22:36.553Z,10.70
2023-01-05T04:25:03.316Z,9.10
2023-01-05T04:27:29.977Z,9.10
2023-01-05T04:29:56.593Z,9.10
2023-01-05T04:32:23.322Z,9.10
2023-01-05T04:34:49.998Z,9.00
2023-01-05T04:37:16.621Z,9.10
2023-01-05T04:39:43.293Z,10.60
2023-01-05T04:42:09.969Z,9.10
2023-01-05T04:44:36.604Z,9.20
2023-01-05T04:47:03.374Z,9.20
2023-01-05T04:49:30.081Z,9.20
2023-01-05T04:51:56.733Z,9.20
2023-01-05T04:54:23.416Z,9.20
2023-01-05T04:56:50.070Z,9.20
2023-01-05T04:59:16.689Z,9.30
2023-01-05T05:01:43.511Z,9.20
2023-01-05T05:04:10.320Z,9.20
2023-01-05T05:06:36.963Z,9.90
2023-01-05T05:09:03.761Z,9.20
2023-01-05T05:11:30.446Z,9.20
2023-01-05T05:13:57.122Z,9.10
2023-01-05T05:16:23.810Z,9.10
2023-01-05T05:18:50.510Z,9.20
2023-01-05T05:21:17.226Z,9.20
2023-01-05T05:23:43.941Z,9.20
2023-01-05T05:26:10.682Z,9.20
2023-01-05T05:28:37.329Z,9.30
2023-01-05T05:31:04.036Z,9.20
2023-01-05T05:33:30.699Z,9.20
2023-01-05T05:35:57.460Z,9.20
2023-01-05T05:38:24.120Z,9.20
2023-01-05T05:40:50.973Z,9.20
2023-01-05T05:43:17.634Z,9.20
2023-01-05T05:45:50.123Z,9.20
2023-01-05T05:48:17.859Z,9.30
2023-01-05T05:50:44.800Z,9.20
2023-01-05T05:53:11.688Z,9.20
2023-01-05T05:55:38.311Z,9.20
2023-01-05T05:58:05.067Z,9.20
2023-01-05T06:00:31.717Z,9.30
2023-01-05T06:02:58.451Z,9.30
2023-01-05T06:05:25.321Z,9.30
2023-01-05T06:07:51.980Z,9.30
2023-01-05T06:10:18.612Z,9.30
2023-01-05T06:12:45.408Z,9.20
2023-01-05T06:15:12.279Z,9.30
2023-01-05T06:17:39.158Z,9.70
2023-01-05T06:20:06.319Z,9.30
2023-01-05T06:22:33.012Z,9.20
2023-01-05T06:24:59.642Z,9.30
2023-01-05T06:27:26.302Z,9.20
2023-01-05T06:29:52.935Z,9.20
2023-01-05T06:32:19.618Z,9.00
2023-01-05T06:34:46.281Z,9.20
2023-01-05T06:37:12.969Z,9.10
2023-01-05T06:39:39.654Z,9.10
2023-01-05T06:42:06.392Z,9.10
2023-01-05T06:44:33.138Z,9.40
2023-01-05T06:46:59.875Z,9.10
2023-01-05T06:49:26.551Z,9.00
2023-01-05T06:51:53.356Z,9.00
2023-01-05T06:54:20.129Z,9.00
2023-01-05T06:56:46.815Z,8.90
2023-01-05T06:59:13.609Z,8.90
2023-01-05T07:01:40.451Z,8.90
2023-01-05T07:04:07.160Z,9.90
2023-01-05T07:06:34.621Z,8.90
2023-01-05T07:09:02.823Z,9.40
2023-01-05T07:11:29.667Z,11.30
2023-01-05T07:13:56.391Z,8.90
2023-01-05T07:16:23.146Z,9.00
2023-01-05T07:18:49.866Z,9.00
2023-01-05T07:21:16.556Z,9.00
2023-01-05T07:23:43.263Z,9.00
2023-01-05T07:26:10.110Z,9.00
2023-01-05T07:28:37.244Z,9.00
2023-01-05T07:31:04.199Z,9.90
2023-01-05T07:33:36.052Z,9.00
2023-01-05T07:36:06.077Z,9.00
2023-01-05T07:38:33.028Z,9.00
2023-01-05T07:41:00.389Z,10.60
2023-01-05T07:43:27.277Z,9.00
2023-01-05T07:45:58.105Z,9.00
2023-01-05T07:48:24.808Z,8.90
2023-01-05T07:50:51.967Z,9.00
2023-01-05T07:53:18.685Z,10.10
2023-01-05T07:55:54.550Z,9.10
2023-01-05T07:58:21.268Z,8.90
2023-01-05T08:00:47.928Z,10.80
2023-01-05T08:03:15.582Z,9.90
2023-01-05T08:05:42.390Z,9.00
2023-01-05T08:08:08.977Z,9.00
2023-01-05T08:10:37.728Z,9.00
2023-01-05T08:13:23.625Z,9.00
2023-01-05T08:15:51.650Z,9.00
2023-01-05T08:18:18.973Z,9.00
2023-01-05T08:20:52.251Z,9.00
2023-01-05T08:23:25.652Z,9.00
2023-01-05T08:25:53.293Z,9.00
2023-01-05T08:28:20.037Z,10.40
2023-01-05T08:30:47.670Z,9.00
2023-01-05T08:33:14.446Z,9.00
2023-01-05T08:35:41.785Z,10.60
2023-01-05T08:38:08.524Z,9.00
2023-01-05T08:40:36.348Z,9.00
2023-01-05T08:43:03.069Z,9.00
2023-01-05T08:45:29.974Z,9.00
2023-01-05T08:47:56.790Z,9.00
2023-01-05T08:50:23.585Z,9.00
2023-01-05T08:52:50.306Z,10.20
2023-01-05T08:55:16.991Z,9.10
2023-01-05T08:57:44.105Z,9.10
2023-01-05T09:00:11.012Z,10.00
2023-01-05T09:02:37.825Z,9.10
2023-01-05T09:05:04.666Z,9.30
2023-01-05T09:07:31.453Z,9.20
2023-01-05T09:09:58.031Z,9.30
2023-01-05T09:12:27.916Z,9.30
2023-01-05T09:14:59.339Z,9.80
2023-01-05T09:17:26.032Z,9.20
2023-01-05T09:19:52.700Z,9.20
2023-01-05T09:22:19.415Z,9.10
2023-01-05T09:24:46.359Z,9.10
2023-01-05T09:27:13.049Z,9.00
2023-01-05T09:29:39.703Z,9.10
2023-01-05T09:32:06.777Z,9.10
2023-01-05T09:34:33.611Z,9.80
2023-01-05T09:37:00.367Z,9.20
2023-01-05T09:39:27.083Z,9.70
2023-01-05T09:41:59.119Z,9.10
2023-01-05T09:44:25.850Z,9.20
2023-01-05T09:46:54.169Z,9.20
2023-01-05T09:49:22.060Z,9.30
2023-01-05T09:51:50.893Z,9.30
2023-01-05T09:54:18.797Z,10.20
2023-01-05T09:59:43.073Z,10.10
2023-01-05T10:02:22.576Z,9.40
2023-01-05T10:04:49.900Z,9.50
2023-01-05T10:07:35.556Z,9.50
2023-01-05T10:10:05.186Z,9.50
2023-01-05T10:12:55.615Z,9.50
2023-01-05T10:15:22.427Z,9.60
2023-01-05T10:17:49.137Z,9.80
2023-01-05T10:20:25.256Z,9.60
2023-01-05T10:23:09.486Z,9.70
2023-01-05T10:25:42.772Z,9.70
2023-01-05T10:28:16.989Z,9.70
2023-01-05T10:30:56.014Z,9.80
2023-01-05T10:33:38.960Z,9.80
2023-01-05T10:36:12.111Z,9.80
2023-01-05T10:38:49.043Z,9.80
2023-01-05T10:41:25.673Z,9.80
2023-01-05T10:43:52.244Z,9.80
2023-01-05T10:46:32.647Z,9.80
2023-01-05T10:49:01.993Z,9.80
2023-01-05T10:51:31.481Z,9.80
2023-01-05T10:53:58.170Z,9.80
2023-01-05T10:56:25.643Z,9.80
2023-01-05T10:59:08.750Z,9.90
2023-01-05T11:01:36.107Z,9.90
2023-01-05T11:04:26.954Z,10.00
2023-01-05T11:06:52.381Z,10.90
2023-01-05T11:09:22.281Z,10.10
2023-01-05T11:12:12.396Z,10.10
2023-01-05T11:14:42.595Z,10.10
2023-01-05T11:17:16.811Z,10.10
2023-01-05T11:19:48.182Z,10.10
2023-01-05T11:22:27.337Z,10.20
2023-01-05T11:24:53.992Z,10.20
2023-01-05T11:27:20.549Z,12.10
2023-01-05T11:30:07.154Z,10.30
2023-01-05T11:32:33.787Z,10.20
2023-01-05T11:35:00.731Z,10.20
2023-01-05T11:37:28.647Z,10.20
2023-01-05T11:39:56.278Z,10.20
2023-01-05T11:42:25.798Z,10.80
2023-01-05T11:44:52.721Z,11.80
2023-01-05T11:47:27.745Z,10.20
2023-01-05T11:50:08.449Z,10.20
2023-01-05T11:52:37.498Z,10.20
2023-01-05T11:55:23.117Z,11.20
2023-01-05T11:57:59.633Z,10.20
2023-01-05T12:00:40.196Z,10.20
2023-01-05T12:03:19.210Z,10.20
2023-01-05T12:05:45.925Z,10.20
2023-01-05T12:08:17.880Z,10.20
2023-01-05T12:10:51.833Z,10.20
2023-01-05T12:13:18.559Z,10.10
2023-01-05T12:15:58.588Z,11.20
2023-01-05T12:18:44.113Z,10.10
2023-01-05T12:21:20.167Z,10.20
2023-01-05T12:23:59.598Z,10.10
2023-01-05T12:26:49.482Z,10.20
2023-01-05T12:35:11.125Z,10.10
2023-01-05T12:37:40.777Z,10.00
2023-01-05T12:40:07.467Z,10.00
2023-01-05T12:42:53.080Z,10.00
2023-01-05T12:45:26.674Z,9.90
2023-01-05T12:48:01.598Z,10.00
2023-01-05T12:50:34.166Z,10.00
2023-01-05T12:53:12.885Z,10.00
2023-01-05T12:55:41.762Z,9.90
2023-01-05T12:58:16.953Z,10.20
2023-01-05T13:00:46.212Z,9.90
2023-01-05T13:03:25.822Z,9.90
2023-01-05T13:05:57.682Z,9.90
2023-01-05T13:08:38.376Z,10.00
2023-01-05T18:23:14.062Z,8.40
2023-01-05T18:25:40.742Z,8.50
2023-01-05T18:28:07.368Z,8.50
2023-01-05T18:30:34.136Z,10.10
2023-01-05T18:33:00.807Z,8.50
2023-01-05T18:35:27.822Z,8.40
2023-01-05T18:37:58.179Z,8.40
2023-01-05T18:40:24.920Z,8.40
2023-01-05T18:42:51.600Z,8.40
2023-01-05T18:45:25.973Z,8.30
2023-01-05T18:47:58.687Z,8.30
2023-01-05T18:50:25.554Z,8.30
2023-01-05T18:52:52.391Z,8.30
2023-01-05T18:55:18.943Z,8.30
2023-01-05T18:57:45.512Z,8.20
2023-01-05T19:00:12.576Z,8.20
2023-01-05T19:02:39.732Z,8.10
2023-01-05T19:05:06.425Z,8.10
2023-01-05T19:07:33.022Z,8.00
2023-01-05T19:09:59.659Z,8.10
2023-01-05T19:12:26.273Z,8.00
2023-01-05T19:14:52.854Z,8.00
2023-01-05T19:17:19.509Z,8.00
2023-01-05T19:19:46.113Z,7.90
2023-01-05T19:22:12.766Z,8.00
2023-01-05T19:24:39.337Z,7.90
2023-01-05T19:27:05.992Z,9.00
2023-01-05T19:29:32.591Z,9.50
2023-01-05T19:31:59.238Z,8.00
2023-01-05T19:34:26.097Z,8.00
2023-01-05T19:36:52.718Z,9.60
2023-01-05T19:39:21.014Z,8.00
2023-01-05T19:41:48.254Z,8.10
2023-01-05T19:44:16.012Z,8.20
2023-01-05T19:46:43.742Z,8.10
2023-01-05T19:49:15.684Z,8.30
2023-01-05T19:51:42.291Z,8.10
2023-01-05T19:54:10.246Z,8.20
2023-01-05T19:56:37.393Z,8.20
2023-01-05T19:59:06.227Z,10.10
2023-01-05T20:01:35.214Z,9.40
2023-01-05T20:04:01.924Z,8.20
2023-01-05T20:06:30.094Z,8.20
2023-01-05T20:08:58.396Z,8.30
2023-01-05T20:11:43.356Z,8.30
2023-01-05T20:14:13.030Z,8.30
2023-01-05T20:16:44.282Z,8.30
2023-01-05T20:19:11.529Z,8.30
2023-01-05T20:21:38.179Z,8.40
2023-01-05T20:24:07.321Z,8.50
2023-01-05T20:26:34.028Z,8.40
2023-01-05T20:29:00.808Z,8.60
2023-01-05T20:31:28.931Z,8.50
2023-01-05T20:33:58.032Z,8.50
2023-01-05T20:36:25.214Z,8.50
2023-01-05T20:38:52.262Z,8.50
2023-01-05T20:41:20.715Z,8.50
2023-01-05T20:43:47.891Z,8.40
2023-01-05T20:46:15.505Z,8.40
2023-01-05T20:48:42.456Z,8.40
2023-01-05T20:51:11.090Z,8.90
2023-01-05T20:53:38.073Z,8.50
2023-01-05T20:56:06.378Z,8.50
2023-01-05T20:58:33.583Z,8.40
2023-01-05T21:01:10.083Z,8.50
2023-01-05T21:03:38.588Z,8.40
2023-01-05T21:06:06.070Z,8.40
2023-01-05T21:08:33.333Z,8.30
2023-01-05T21:11:00.884Z,8.30
2023-01-05T21:13:31.249Z,8.30
2023-01-05T21:16:00.860Z,8.20
2023-01-05T21:18:27.477Z,8.10
2023-01-05T21:20:54.101Z,8.10
2023-01-05T21:23:20.791Z,8.10
2023-01-05T21:26:06.268Z,8.00
2023-01-05T21:28:35.828Z,8.00
2023-01-05T21:31:06.373Z,7.90
2023-01-05T21:33:33.087Z,8.00
2023-01-05T21:35:59.736Z,8.00
2023-01-05T21:38:26.339Z,8.00
2023-01-05T21:41:12.954Z,7.90
2023-01-05T21:43:39.613Z,8.00
2023-01-05T21:46:07.280Z,8.00
2023-01-05T21:48:34.633Z,7.90
2023-01-05T21:51:20.332Z,8.60
2023-01-05T21:54:07.968Z,7.90
2023-01-05T21:56:38.461Z,9.40
2023-01-05T21:59:10.204Z,7.80
2023-01-05T22:01:38.247Z,9.30
2023-01-05T22:04:05.292Z,7.70
2023-01-05T22:06:32.130Z,7.70
2023-01-05T22:08:58.917Z,7.70
2023-01-05T22:11:25.554Z,7.70
2023-01-05T22:13:52.182Z,7.60
2023-01-05T22:16:19.014Z,7.60
2023-01-05T22:18:45.925Z,8.50
2023-01-05T22:21:14.857Z,7.70
2023-01-05T22:23:41.592Z,7.70
2023-01-05T22:26:12.570Z,7.70
2023-01-05T22:28:40.204Z,7.80
2023-01-05T22:31:11.201Z,7.80
2023-01-05T22:33:39.257Z,7.80
2023-01-05T22:36:06.452Z,7.90
2023-01-05T22:38:37.047Z,7.90
2023-01-05T22:41:04.567Z,7.90
2023-01-05T22:43:31.563Z,7.90
2023-01-05T22:46:02.567Z,8.00
2023-01-05T22:48:34.103Z,7.90
2023-01-05T22:51:08.078Z,7.90
2023-01-05T22:53:34.751Z,7.90
2023-01-05T22:56:01.407Z,8.10
2023-01-05T22:58:28.118Z,8.00
2023-01-05T23:00:54.817Z,10.00
2023-01-05T23:03:21.662Z,8.00
2023-01-05T23:05:48.312Z,8.00
2023-01-05T23:08:14.917Z,8.00
2023-01-05T23:10:41.530Z,8.10
2023-01-05T23:13:08.122Z,8.00
2023-01-05T23:15:34.762Z,8.10
2023-01-05T23:18:01.358Z,8.00
2023-01-05T23:20:27.900Z,8.00
2023-01-05T23:22:54.513Z,8.00
2023-01-05T23:25:21.218Z,8.00
2023-01-05T23:27:47.827Z,7.90
2023-01-05T23:30:14.375Z,7.90
2023-01-05T23:32:41.013Z,8.10
2023-01-05T23:35:08.062Z,8.00
2023-01-05T23:37:34.682Z,7.80
2023-01-05T23:40:01.394Z,7.80
2023-01-05T23:42:43.433Z,7.90
2023-01-05T23:45:10.217Z,7.90
2023-01-05T23:47:36.869Z,7.90
2023-01-05T23:50:03.884Z,7.90
2023-01-05T23:52:30.477Z,7.90
2023-01-05T23:54:57.047Z,7.90
2023-01-05T23:57:23.664Z,8.10
2023-01-05T23:59:50.239Z,9.60
